Time;durP1;ratioP1;P1;durP2;ratioP2;P2;SDS_P1;SDS_P2;PMS_P1;PMS_P2;Temp;Humidity;BMP_temperature;BMP_pressure;BME280_temperature;BME280_humidity;BME280_pressure;Samples;Min_cycle;Max_cycle;Signal;HPM_P1;HPM_P2
2023/10/19 04:01:31;;;;;;;11.82;7.55;;;7.10;99.90;;;;;;5409013;23;20272;-73
2023/10/19 04:03:58;;;;;;;12.60;8.77;;;7.10;99.90;;;;;;4934542;29;20220;-73
2023/10/19 04:06:27;;;;;;;16.33;9.32;;;7.10;99.90;;;;;;4934352;29;20224;-73
2023/10/19 04:08:54;;;;;;;11.07;8.68;;;7.20;99.90;;;;;;4934869;29;20214;-73
2023/10/19 04:11:22;;;;;;;14.65;9.65;;;7.10;99.90;;;;;;4952409;29;20707;-72
2023/10/19 04:13:52;;;;;;;12.05;9.80;;;7.10;99.90;;;;;;4953923;28;20217;-72
2023/10/19 04:16:20;;;;;;;9.35;7.03;;;7.10;99.90;;;;;;4953981;28;20220;-72
2023/10/19 04:18:49;;;;;;;13.52;7.63;;;7.10;99.90;;;;;;4953792;28;20608;-72
2023/10/19 04:21:16;;;;;;;11.48;8.40;;;7.10;99.90;;;;;;4953617;28;20229;-72
2023/10/19 04:23:43;;;;;;;13.10;9.40;;;7.10;99.90;;;;;;4953529;28;20217;-72
2023/10/19 04:26:11;;;;;;;12.75;10.82;;;7.10;99.90;;;;;;4953406;28;20217;-72
2023/10/19 04:28:44;;;;;;;16.27;10.75;;;7.10;99.90;;;;;;4953793;28;20210;-72
2023/10/19 04:31:13;;;;;;;15.35;9.60;;;7.00;99.90;;;;;;4953877;28;20255;-72
2023/10/19 04:33:42;;;;;;;14.63;10.00;;;7.00;99.90;;;;;;4953471;28;20217;-72
2023/10/19 04:36:11;;;;;;;12.50;9.60;;;7.00;99.90;;;;;;4953063;28;20237;-72
2023/10/19 04:38:38;;;;;;;9.88;7.45;;;7.00;99.90;;;;;;4953857;28;20213;-73
2023/10/19 04:41:07;;;;;;;14.52;9.95;;;7.00;99.90;;;;;;4953906;28;20229;-72
2023/10/19 04:43:35;;;;;;;12.35;9.82;;;7.00;99.90;;;;;;4953651;28;20312;-70
2023/10/19 04:46:07;;;;;;;12.65;9.00;;;7.00;99.90;;;;;;4952897;28;20209;-70
2023/10/19 04:48:35;;;;;;;14.23;8.27;;;7.00;99.90;;;;;;4953258;28;20217;-70
2023/10/19 04:51:03;;;;;;;11.60;8.25;;;7.00;99.90;;;;;;4953546;28;20423;-70
2023/10/19 04:53:31;;;;;;;15.40;10.02;;;7.00;99.90;;;;;;4953518;28;20344;-71
2023/10/19 04:56:00;;;;;;;13.13;9.88;;;7.00;99.90;;;;;;4953119;28;20213;-71
2023/10/19 04:58:27;;;;;;;18.38;7.80;;;7.00;99.90;;;;;;4953332;28;20213;-70
2023/10/19 05:00:54;;;;;;;15.20;11.80;;;7.00;99.90;;;;;;4953162;28;20243;-71
2023/10/19 05:03:21;;;;;;;12.60;9.95;;;7.00;99.90;;;;;;4956062;28;20249;-71
2023/10/19 05:05:48;;;;;;;13.88;10.10;;;7.00;99.90;;;;;;4956579;28;20285;-71
2023/10/19 05:08:14;;;;;;;14.30;10.23;;;7.00;99.90;;;;;;4957100;28;20236;-71
2023/10/19 05:10:42;;;;;;;14.63;10.15;;;6.90;99.90;;;;;;4956615;28;20248;-71
2023/10/19 05:13:10;;;;;;;13.63;9.32;;;6.90;99.90;;;;;;4956617;28;20309;-71
2023/10/19 05:15:36;;;;;;;16.95;11.85;;;7.00;99.90;;;;;;4956771;28;20217;-71
2023/10/19 05:18:04;;;;;;;12.93;8.77;;;6.90;99.90;;;;;;4956891;28;20628;-71
2023/10/19 05:20:31;;;;;;;12.20;8.27;;;6.90;99.90;;;;;;4956511;28;20287;-71
2023/10/19 05:22:59;;;;;;;12.45;9.48;;;6.90;99.90;;;;;;4956688;28;20209;-71
2023/10/19 05:25:27;;;;;;;11.18;6.45;;;6.90;99.90;;;;;;4956134;28;20245;-71
2023/10/19 05:27:55;;;;;;;13.18;9.30;;;6.90;99.90;;;;;;4956531;28;20209;-71
2023/10/19 05:30:22;;;;;;;15.48;9.57;;;6.90;99.90;;;;;;4955994;28;20217;-71
2023/10/19 05:32:49;;;;;;;13.48;9.23;;;6.90;99.90;;;;;;4956358;28;20248;-70
2023/10/19 05:35:22;;;;;;;17.13;10.93;;;6.90;99.90;;;;;;4956430;28;20600;-71
2023/10/19 05:37:50;;;;;;;19.40;10.70;;;6.90;99.90;;;;;;4956486;28;20217;-71
2023/10/19 05:40:17;;;;;;;12.82;8.20;;;6.90;99.90;;;;;;4956007;28;20759;-71
2023/10/19 05:42:45;;;;;;;18.23;10.40;;;6.90;99.90;;;;;;4956136;28;20668;-71
2023/10/19 05:45:16;;;;;;;11.75;9.32;;;6.90;99.90;;;;;;4956131;28;20300;-70
2023/10/19 05:47:43;;;;;;;17.67;10.07;;;6.90;99.90;;;;;;4956045;28;20213;-71
2023/10/19 05:50:13;;;;;;;13.82;9.45;;;6.90;99.90;;;;;;4956013;28;20213;-71
2023/10/19 05:52:40;;;;;;;20.08;11.50;;;6.90;99.90;;;;;;4955803;28;20237;-71
2023/10/19 05:55:07;;;;;;;15.00;10.55;;;6.90;99.90;;;;;;4955670;28;20683;-70
2023/10/19 05:57:35;;;;;;;11.68;9.50;;;6.90;99.90;;;;;;4955482;28;20213;-71
2023/10/19 06:00:05;;;;;;;12.15;8.95;;;6.90;99.90;;;;;;4955935;28;20695;-71
2023/10/19 06:02:34;;;;;;;13.15;7.20;;;6.90;99.90;;;;;;4955406;28;20268;-71
2023/10/19 06:05:01;;;;;;;18.70;11.32;;;6.90;99.90;;;;;;4955211;28;20217;-71
2023/10/19 06:07:28;;;;;;;14.95;9.82;;;6.90;99.90;;;;;;4954918;28;20231;-71
2023/10/19 06:09:55;;;;;;;13.18;6.43;;;7.00;99.90;;;;;;4954866;28;20292;-71
2023/10/19 06:12:21;;;;;;;15.60;8.60;;;7.00;99.90;;;;;;4954670;28;20237;-71
2023/10/19 06:14:48;;;;;;;14.68;10.50;;;7.00;99.90;;;;;;4955088;28;20225;-72
2023/10/19 06:17:19;;;;;;;18.10;11.50;;;7.00;99.90;;;;;;4954940;28;20213;-72
2023/10/19 06:19:47;;;;;;;18.90;10.75;;;7.00;99.90;;;;;;4955001;28;20287;-71
2023/10/19 06:22:15;;;;;;;16.85;11.00;;;7.00;99.90;;;;;;4955043;28;20229;-72
2023/10/19 06:24:43;;;;;;;18.50;10.73;;;7.00;99.90;;;;;;4954465;28;20220;-71
2023/10/19 06:27:10;;;;;;;15.15;9.60;;;7.10;99.90;;;;;;4954820;28;20256;-71
2023/10/19 06:29:36;;;;;;;16.45;9.80;;;7.10;99.90;;;;;;4954767;28;20221;-71
2023/10/19 06:32:04;;;;;;;16.90;9.25;;;7.10;99.90;;;;;;4954499;28;20393;-71
2023/10/19 06:34:32;;;;;;;15.70;9.88;;;7.10;99.90;;;;;;4954514;28;20284;-71
2023/10/19 06:37:00;;;;;;;13.75;11.10;;;7.10;99.90;;;;;;4954259;28;20279;-71
2023/10/19 06:39:27;;;;;;;14.23;10.05;;;7.10;99.90;;;;;;4954086;28;20224;-71
2023/10/19 06:41:54;;;;;;;11.23;8.93;;;7.20;99.90;;;;;;4954215;28;20256;-71
2023/10/19 06:44:22;;;;;;;17.90;10.10;;;7.20;99.90;;;;;;4954587;28;20224;-72
2023/10/19 06:46:49;;;;;;;14.05;9.82;;;7.20;99.90;;;;;;4954014;28;20220;-72
2023/10/19 06:49:17;;;;;;;15.75;11.23;;;7.20;99.90;;;;;;4954348;28;20484;-73
2023/10/19 06:51:44;;;;;;;17.50;11.52;;;7.20;99.90;;;;;;4954002;28;20244;-72
2023/10/19 06:54:13;;;;;;;17.00;10.18;;;7.30;99.90;;;;;;4954252;28;20253;-72
2023/10/19 06:56:41;;;;;;;16.25;10.20;;;7.30;99.90;;;;;;4954193;28;20255;-70
2023/10/19 06:59:08;;;;;;;18.58;10.27;;;7.30;99.90;;;;;;4954567;28;20260;-70
2023/10/19 07:01:36;;;;;;;14.35;10.32;;;7.30;99.90;;;;;;4956417;28;20265;-70
2023/10/19 07:04:02;;;;;;;16.33;11.20;;;7.30;99.90;;;;;;4948202;28;20232;-71
2023/10/19 07:06:30;;;;;;;13.25;9.27;;;7.30;99.90;;;;;;4956321;28;20699;-70
2023/10/19 07:08:58;;;;;;;15.27;10.60;;;7.30;99.90;;;;;;4954423;28;20244;-70
2023/10/19 07:11:26;;;;;;;5.60;4.78;;;7.40;99.90;;;;;;4953920;28;20287;-71
2023/10/19 07:13:53;;;;;;;16.05;10.82;;;7.40;99.90;;;;;;4953798;28;20213;-71
2023/10/19 07:16:20;;;;;;;16.40;10.82;;;7.40;99.90;;;;;;4953534;28;20217;-71
2023/10/19 07:18:46;;;;;;;19.50;10.20;;;7.40;99.90;;;;;;4948171;28;20238;-70
2023/10/19 07:21:13;;;;;;;15.38;10.23;;;7.40;99.90;;;;;;4951759;29;20237;-70
2023/10/19 07:23:40;;;;;;;14.63;11.48;;;7.40;99.90;;;;;;4949139;28;20212;-70
2023/10/19 07:26:07;;;;;;;22.13;9.80;;;7.40;99.90;;;;;;4950232;29;20309;-70
2023/10/19 07:28:35;;;;;;;11.60;9.52;;;7.40;99.90;;;;;;4953861;28;20252;-70
2023/10/19 07:31:03;;;;;;;13.15;9.73;;;7.40;99.90;;;;;;4945768;28;20798;-70
2023/10/19 07:33:30;;;;;;;18.10;12.00;;;7.40;99.90;;;;;;4953517;28;20237;-70
2023/10/19 07:35:59;;;;;;;19.23;10.02;;;7.50;99.90;;;;;;4945577;28;20220;-70
2023/10/19 07:38:28;;;;;;;12.70;8.90;;;7.50;99.90;;;;;;4950973;28;20210;-70
2023/10/19 07:40:55;;;;;;;16.88;10.60;;;7.50;99.90;;;;;;4949194;29;20613;-70
2023/10/19 07:43:22;;;;;;;20.25;9.45;;;7.50;99.90;;;;;;4953536;28;20224;-70
2023/10/19 07:45:52;;;;;;;18.02;9.48;;;7.50;99.90;;;;;;4953402;28;20221;-70
2023/10/19 07:48:18;;;;;;;18.70;11.80;;;7.50;99.90;;;;;;4953947;28;20471;-70
2023/10/19 07:50:45;;;;;;;17.70;11.00;;;7.50;99.90;;;;;;4948332;28;20238;-70
2023/10/19 07:53:12;;;;;;;14.02;8.35;;;7.50;99.90;;;;;;4951611;29;20308;-70
2023/10/19 07:55:39;;;;;;;17.25;11.80;;;7.50;99.90;;;;;;4953573;28;20308;-71
2023/10/19 07:58:07;;;;;;;14.80;11.48;;;7.50;99.90;;;;;;4953639;28;20213;-70
2023/10/19 08:00:34;;;;;;;19.48;11.57;;;7.50;99.90;;;;;;4953350;28;20264;-72
2023/10/19 08:03:04;;;;;;;14.75;8.90;;;7.60;99.90;;;;;;4953642;28;20350;-72
2023/10/19 08:05:31;;;;;;;7.82;7.07;;;7.50;99.90;;;;;;4953558;28;20217;-72
2023/10/19 08:07:59;;;;;;;14.65;7.60;;;7.50;99.90;;;;;;4953755;28;20213;-72
2023/10/19 08:10:26;;;;;;;16.38;10.95;;;7.50;99.90;;;;;;4953345;28;20716;-72
2023/10/19 08:12:55;;;;;;;15.98;10.48;;;7.60;99.90;;;;;;4953447;28;20315;-72
2023/10/19 08:15:22;;;;;;;18.98;10.60;;;7.60;99.90;;;;;;4953134;28;20300;-71
2023/10/19 08:17:50;;;;;;;15.82;10.85;;;7.70;99.90;;;;;;4953771;28;20256;-72
2023/10/19 08:20:22;;;;;;;19.00;11.35;;;7.70;99.90;;;;;;4953517;28;20220;-72
2023/10/19 08:22:50;;;;;;;21.38;12.27;;;7.70;99.90;;;;;;4953753;28;20640;-72
2023/10/19 08:25:16;;;;;;;18.77;11.43;;;7.80;99.90;;;;;;4953319;28;20275;-72
2023/10/19 08:27:45;;;;;;;16.42;11.07;;;7.80;99.90;;;;;;4953420;28;20476;-72
2023/10/19 08:30:12;;;;;;;16.95;10.15;;;7.80;99.90;;;;;;4953508;28;20223;-71
2023/10/19 08:32:39;;;;;;;16.48;10.85;;;7.80;99.90;;;;;;4953587;28;20229;-72
2023/10/19 08:35:07;;;;;;;15.75;10.98;;;7.80;99.90;;;;;;4953098;28;20661;-71
2023/10/19 08:37:35;;;;;;;21.17;12.65;;;7.80;99.90;;;;;;4957013;28;20257;-71
2023/10/19 08:40:04;;;;;;;20.27;12.73;;;7.80;99.90;;;;;;4956996;28;20224;-72
2023/10/19 08:42:31;;;;;;;18.38;12.40;;;7.80;99.90;;;;;;4956981;28;20289;-72
2023/10/19 08:44:59;;;;;;;15.98;10.27;;;7.80;99.90;;;;;;4956713;28;20209;-71
2023/10/19 08:47:26;;;;;;;18.60;12.82;;;7.80;99.90;;;;;;4956222;28;20312;-71
2023/10/19 08:49:53;;;;;;;20.40;14.02;;;7.80;99.90;;;;;;4957033;28;20253;-72
2023/10/19 08:52:23;;;;;;;20.65;12.40;;;7.80;99.90;;;;;;4956170;28;20240;-72
2023/10/19 08:54:51;;;;;;;18.73;12.90;;;7.80;99.90;;;;;;4956637;28;20684;-71
2023/10/19 08:57:19;;;;;;;20.48;12.85;;;7.80;99.90;;;;;;4956875;28;20224;-71
2023/10/19 08:59:46;;;;;;;16.95;12.38;;;7.80;99.90;;;;;;4956576;28;20672;-71
2023/10/19 09:02:13;;;;;;;19.52;13.48;;;7.80;99.90;;;;;;4956321;28;20271;-71
2023/10/19 09:04:44;;;;;;;19.98;13.20;;;7.80;99.90;;;;;;4956851;28;20209;-71
2023/10/19 09:07:12;;;;;;;16.80;12.43;;;7.80;99.90;;;;;;4956119;28;20221;-71
2023/10/19 09:09:40;;;;;;;19.17;11.80;;;7.70;99.90;;;;;;4956096;28;20220;-71
2023/10/19 09:12:09;;;;;;;14.05;11.70;;;7.60;99.90;;;;;;4955583;28;20233;-71
2023/10/19 09:14:41;;;;;;;26.00;14.25;;;7.60;99.90;;;;;;4955804;28;20221;-71
2023/10/19 09:17:08;;;;;;;10.73;7.90;;;7.50;99.90;;;;;;4955551;28;20620;-71
2023/10/19 09:19:40;;;;;;;14.85;10.23;;;7.50;99.90;;;;;;4955619;28;20244;-71
2023/10/19 09:22:16;;;;;;;14.35;8.77;;;7.50;99.90;;;;;;4955355;28;20779;-71
2023/10/19 09:24:43;;;;;;;22.85;12.38;;;7.60;99.90;;;;;;4955763;28;20260;-71
2023/10/19 09:27:14;;;;;;;12.23;9.00;;;7.60;99.90;;;;;;4955409;28;20223;-71
2023/10/19 09:29:41;;;;;;;20.23;13.20;;;7.70;99.90;;;;;;4955531;28;20253;-71
2023/10/19 09:32:08;;;;;;;21.33;13.48;;;7.70;99.90;;;;;;4955242;28;20233;-71
2023/10/19 09:34:36;;;;;;;23.55;13.32;;;7.70;99.90;;;;;;4955791;28;20224;-71
2023/10/19 09:37:04;;;;;;;23.25;14.82;;;7.70;99.90;;;;;;4955612;28;20241;-71
2023/10/19 09:39:35;;;;;;;18.15;12.52;;;7.70;99.90;;;;;;4955514;28;20235;-71
2023/10/19 09:42:05;;;;;;;22.17;13.82;;;7.70;99.90;;;;;;4955713;28;20237;-71
2023/10/19 09:44:39;;;;;;;16.13;11.02;;;7.70;99.90;;;;;;4955244;28;20236;-71
2023/10/19 09:47:12;;;;;;;24.30;13.38;;;7.70;99.90;;;;;;4954874;28;20212;-70
2023/10/19 09:49:39;;;;;;;20.13;13.13;;;7.70;99.90;;;;;;4955191;28;20762;-70
2023/10/19 09:52:07;;;;;;;22.58;14.45;;;7.80;99.90;;;;;;4954918;28;20704;-70
2023/10/19 09:54:47;;;;;;;21.63;14.68;;;7.80;99.90;;;;;;4955115;28;20275;-70
2023/10/19 09:57:19;;;;;;;19.38;13.07;;;7.80;99.90;;;;;;4954840;28;20703;-70
2023/10/19 09:59:52;;;;;;;20.25;13.23;;;7.70;99.90;;;;;;4955314;28;20217;-70
2023/10/19 10:02:22;;;;;;;19.60;14.43;;;7.70;99.90;;;;;;4954939;28;20245;-70
2023/10/19 10:04:48;;;;;;;17.85;13.55;;;7.70;99.90;;;;;;4955156;28;20312;-70
2023/10/19 10:07:16;;;;;;;22.02;14.90;;;7.70;99.90;;;;;;4954824;28;20217;-70
2023/10/19 10:09:44;;;;;;;19.50;13.25;;;7.70;99.90;;;;;;4954875;28;20217;-71
2023/10/19 10:12:23;;;;;;;19.10;12.13;;;7.80;99.90;;;;;;4954823;28;20240;-71
2023/10/19 10:15:02;;;;;;;17.10;11.10;;;7.70;99.90;;;;;;4955232;28;20707;-72
2023/10/19 10:17:30;;;;;;;21.25;13.93;;;7.70;99.90;;;;;;4955273;28;20220;-71
2023/10/19 10:20:27;;;;;;;23.77;15.48;;;7.70;99.90;;;;;;4954968;28;20230;-72
2023/10/19 10:23:17;;;;;;;20.35;13.98;;;7.70;99.90;;;;;;4954624;28;20308;-72
2023/10/19 10:25:48;;;;;;;19.70;12.77;;;7.70;99.90;;;;;;4954605;28;20276;-72
2023/10/19 10:28:15;;;;;;;24.02;13.70;;;7.70;99.90;;;;;;4954769;28;20696;-72
2023/10/19 10:31:17;;;;;;;19.02;13.02;;;7.70;99.90;;;;;;4954865;28;20229;-72
2023/10/19 10:33:47;;;;;;;21.33;13.40;;;7.70;99.90;;;;;;4949654;28;20253;-72
2023/10/19 10:36:16;;;;;;;23.95;15.20;;;7.80;99.90;;;;;;4954553;28;20307;-72
2023/10/19 10:38:45;;;;;;;22.45;14.70;;;7.80;99.90;;;;;;4954736;28;20310;-72
2023/10/19 10:41:12;;;;;;;23.08;15.35;;;7.80;99.90;;;;;;4954796;28;20239;-72
2023/10/19 10:43:53;;;;;;;30.10;17.10;;;7.70;99.90;;;;;;4954904;28;20205;-72
2023/10/19 10:46:21;;;;;;;19.88;16.40;;;7.70;99.90;;;;;;4954593;28;20641;-72
2023/10/19 10:48:49;;;;;;;19.88;14.95;;;7.70;99.90;;;;;;4954342;28;20268;-72
2023/10/19 10:51:20;;;;;;;25.40;15.75;;;7.70;99.90;;;;;;4954434;28;20229;-72
2023/10/19 10:53:51;;;;;;;24.73;16.63;;;7.70;99.90;;;;;;4954380;28;20587;-72
2023/10/19 10:56:19;;;;;;;22.35;14.13;;;7.70;99.90;;;;;;4954868;28;20213;-72
2023/10/19 10:58:46;;;;;;;30.50;17.23;;;7.80;99.90;;;;;;4954590;28;20252;-72
2023/10/19 11:01:14;;;;;;;20.05;15.05;;;7.80;99.90;;;;;;4955114;28;20245;-72
2023/10/19 11:03:41;;;;;;;26.05;17.17;;;7.80;99.90;;;;;;4956451;28;20303;-72
2023/10/19 11:06:10;;;;;;;28.25;17.50;;;7.80;99.90;;;;;;4957336;28;20213;-72
2023/10/19 11:08:38;;;;;;;14.65;10.65;;;7.70;99.90;;;;;;4958170;28;20217;-71
2023/10/19 11:11:06;;;;;;;22.55;14.02;;;7.80;99.90;;;;;;4957046;28;20660;-71
2023/10/19 11:13:37;;;;;;;24.02;13.85;;;7.80;99.90;;;;;;4956477;28;20308;-72
2023/10/19 11:16:06;;;;;;;25.58;16.45;;;7.80;99.90;;;;;;4954938;28;20727;-72
2023/10/19 11:18:35;;;;;;;22.70;14.73;;;7.80;99.90;;;;;;4954610;28;20221;-72
2023/10/19 11:21:06;;;;;;;23.70;17.15;;;7.80;99.90;;;;;;4954319;28;20233;-73
2023/10/19 11:23:38;;;;;;;20.27;13.68;;;7.80;99.90;;;;;;4939430;29;20680;-73
2023/10/19 11:26:06;;;;;;;20.52;15.05;;;7.80;99.90;;;;;;4953769;28;20213;-71
2023/10/19 11:28:33;;;;;;;16.05;13.35;;;7.80;99.90;;;;;;4953904;28;20283;-72
2023/10/19 11:31:13;;;;;;;21.70;16.10;;;7.80;99.90;;;;;;4953901;28;20328;-69
2023/10/19 11:33:42;;;;;;;30.52;16.88;;;7.80;99.90;;;;;;4953782;28;20684;-69
2023/10/19 11:36:09;;;;;;;24.65;15.75;;;7.80;99.90;;;;;;4953377;28;20329;-70
2023/10/19 11:38:37;;;;;;;29.48;16.55;;;7.80;99.90;;;;;;4945681;28;20213;-72
2023/10/19 11:41:04;;;;;;;26.70;16.35;;;7.70;99.90;;;;;;4953279;28;20248;-72
2023/10/19 11:43:31;;;;;;;30.25;18.60;;;7.70;99.90;;;;;;4953493;28;20217;-72
2023/10/19 11:45:58;;;;;;;25.65;17.10;;;7.70;99.90;;;;;;4953436;28;20233;-71
2023/10/19 11:48:25;;;;;;;23.52;16.80;;;7.70;99.90;;;;;;4953305;28;20236;-72
2023/10/19 11:50:53;;;;;;;23.92;17.80;;;7.70;99.90;;;;;;4953324;28;20240;-71
2023/10/19 11:53:20;;;;;;;10.57;7.75;;;7.70;99.90;;;;;;4953333;28;20606;-71
2023/10/19 11:55:49;;;;;;;27.83;18.10;;;7.70;99.90;;;;;;4952865;28;20216;-71
2023/10/19 11:58:15;;;;;;;26.67;16.98;;;7.70;99.90;;;;;;4953397;28;20221;-72
2023/10/19 12:00:43;;;;;;;20.88;13.13;;;7.70;99.90;;;;;;4953152;28;20705;-72
2023/10/19 12:03:11;;;;;;;20.67;15.07;;;7.70;99.90;;;;;;4953034;28;20237;-72
2023/10/19 12:05:38;;;;;;;24.83;17.95;;;7.60;99.90;;;;;;4953044;28;20264;-71
2023/10/19 12:08:06;;;;;;;24.55;15.95;;;7.60;99.90;;;;;;4952986;28;20217;-71
2023/10/19 12:10:35;;;;;;;21.30;15.23;;;7.70;99.90;;;;;;4953361;28;20236;-72
2023/10/19 12:13:03;;;;;;;18.90;14.45;;;7.70;99.90;;;;;;4957304;28;20217;-72
2023/10/19 12:15:32;;;;;;;16.52;13.25;;;7.70;99.90;;;;;;4956899;28;20217;-72
2023/10/19 12:17:59;;;;;;;20.27;14.90;;;7.60;99.90;;;;;;4957345;28;20687;-72
2023/10/19 12:20:26;;;;;;;24.23;16.98;;;7.60;99.90;;;;;;4957285;28;20209;-72
2023/10/19 12:22:53;;;;;;;23.33;15.70;;;7.60;99.90;;;;;;4957418;28;20240;-72
2023/10/19 12:25:21;;;;;;;22.50;15.30;;;7.60;99.90;;;;;;4957095;28;20219;-72
2023/10/19 12:27:49;;;;;;;24.65;15.90;;;7.60;99.90;;;;;;4957619;28;20213;-72
2023/10/19 12:30:20;;;;;;;24.92;16.50;;;7.60;99.90;;;;;;4957447;28;20217;-72
2023/10/19 12:32:49;;;;;;;23.95;16.10;;;7.60;99.90;;;;;;4957272;29;20710;-72
2023/10/19 12:35:19;;;;;;;27.63;17.15;;;7.60;99.90;;;;;;4956920;28;20328;-72
2023/10/19 12:37:51;;;;;;;26.52;15.05;;;7.60;99.90;;;;;;4957553;28;20220;-72
2023/10/19 12:40:28;;;;;;;19.42;12.77;;;7.70;99.90;;;;;;4957478;28;20217;-71
2023/10/19 12:42:55;;;;;;;22.17;15.25;;;7.70;99.90;;;;;;4957402;28;20276;-72
2023/10/19 12:45:25;;;;;;;19.38;13.65;;;7.70;99.90;;;;;;4958084;28;20687;-72
2023/10/19 12:47:52;;;;;;;20.90;14.20;;;7.60;99.90;;;;;;4957197;28;20216;-72
2023/10/19 12:50:22;;;;;;;23.48;16.05;;;7.70;99.90;;;;;;4957317;28;20213;-72
2023/10/19 12:52:50;;;;;;;19.27;12.93;;;7.70;99.90;;;;;;4957236;28;20220;-71
2023/10/19 12:55:17;;;;;;;20.35;14.43;;;7.70;99.90;;;;;;4957387;28;20283;-71
2023/10/19 12:57:44;;;;;;;22.40;14.15;;;7.70;99.90;;;;;;4956709;28;20213;-72
2023/10/19 13:00:29;;;;;;;21.55;15.75;;;7.60;99.90;;;;;;4956861;28;20291;-72
2023/10/19 13:03:00;;;;;;;15.48;9.57;;;7.60;99.90;;;;;;4957024;28;20299;-71
2023/10/19 13:05:28;;;;;;;20.90;14.73;;;7.60;99.90;;;;;;4956608;28;20210;-72
2023/10/19 13:07:58;;;;;;;20.55;13.77;;;7.60;99.90;;;;;;4958067;28;20217;-72
2023/10/19 13:10:32;;;;;;;21.27;14.48;;;7.60;99.90;;;;;;4956365;28;20221;-72
2023/10/19 13:13:03;;;;;;;21.95;15.30;;;7.60;99.90;;;;;;4956684;28;20636;-72
2023/10/19 13:15:30;;;;;;;24.48;16.30;;;7.60;99.90;;;;;;4956500;28;20232;-72
2023/10/19 13:17:59;;;;;;;26.42;16.00;;;7.60;99.90;;;;;;4956791;28;20217;-72
2023/10/19 13:20:28;;;;;;;27.42;16.25;;;7.60;99.90;;;;;;4956377;28;20213;-72
2023/10/19 13:22:56;;;;;;;21.95;16.27;;;7.60;99.90;;;;;;4955265;28;20236;-72
2023/10/19 13:25:38;;;;;;;24.63;14.98;;;7.60;99.90;;;;;;4956259;28;20672;-72
2023/10/19 13:28:08;;;;;;;26.58;18.50;;;7.60;99.90;;;;;;4956531;28;20228;-72
2023/10/19 13:30:37;;;;;;;28.15;17.15;;;7.60;99.90;;;;;;4956188;28;20661;-72
2023/10/19 13:33:07;;;;;;;27.60;17.60;;;7.60;99.90;;;;;;4956210;28;20216;-72
2023/10/19 13:35:34;;;;;;;20.45;15.85;;;7.60;99.90;;;;;;4955974;28;20240;-72
2023/10/19 13:38:01;;;;;;;17.15;11.02;;;7.60;99.90;;;;;;4956082;28;20276;-71
2023/10/19 13:40:29;;;;;;;24.85;18.92;;;7.60;99.90;;;;;;4955874;28;20260;-72
2023/10/19 13:42:57;;;;;;;25.77;16.75;;;7.60;99.90;;;;;;4956323;28;20219;-72
2023/10/19 13:45:23;;;;;;;30.77;19.77;;;7.60;99.90;;;;;;4955828;28;20209;-72
2023/10/19 13:47:54;;;;;;;22.63;15.18;;;7.70;99.90;;;;;;4956242;28;20591;-72
2023/10/19 13:50:23;;;;;;;28.00;15.50;;;7.70;99.90;;;;;;4955729;28;20224;-72
2023/10/19 13:52:50;;;;;;;24.25;15.02;;;7.70;99.90;;;;;;4955888;28;20221;-72
2023/10/19 13:55:18;;;;;;;22.60;16.65;;;7.70;99.90;;;;;;4956072;28;20241;-71
2023/10/19 13:57:45;;;;;;;21.92;13.93;;;7.70;99.90;;;;;;4956323;28;20345;-72
2023/10/19 14:00:19;;;;;;;24.55;17.20;;;7.70;99.90;;;;;;4955812;28;20219;-72
2023/10/19 14:02:46;;;;;;;26.25;16.38;;;7.70;99.90;;;;;;4955938;28;20213;-71
2023/10/19 14:05:12;;;;;;;25.20;14.75;;;7.70;99.90;;;;;;4955531;28;20209;-71
2023/10/19 14:07:40;;;;;;;23.48;14.43;;;7.60;99.90;;;;;;4955562;28;20213;-71
2023/10/19 14:10:12;;;;;;;23.40;16.73;;;7.60;99.90;;;;;;4956246;28;20217;-71
2023/10/19 14:12:41;;;;;;;20.10;11.48;;;7.60;99.90;;;;;;4957052;28;20591;-71
2023/10/19 14:15:09;;;;;;;25.25;16.02;;;7.60;99.90;;;;;;4957254;28;20256;-71
2023/10/19 14:17:36;;;;;;;23.90;16.92;;;7.60;99.90;;;;;;4955734;28;20219;-71
2023/10/19 14:20:04;;;;;;;21.23;14.27;;;7.70;99.90;;;;;;4955808;28;20216;-71
2023/10/19 14:22:34;;;;;;;23.17;15.13;;;7.70;99.90;;;;;;4955492;28;20322;-71
2023/10/19 14:25:02;;;;;;;30.30;14.55;;;7.70;99.90;;;;;;4955487;28;20592;-71
2023/10/19 14:27:30;;;;;;;23.65;14.05;;;7.70;99.90;;;;;;4955422;28;20209;-71
2023/10/19 14:29:57;;;;;;;22.83;13.18;;;7.70;99.90;;;;;;4955194;28;20660;-71
2023/10/19 14:32:23;;;;;;;26.42;16.60;;;7.70;99.90;;;;;;4955434;28;20240;-71
2023/10/19 14:34:50;;;;;;;21.50;14.82;;;7.70;99.90;;;;;;4955200;28;20673;-71
2023/10/19 14:37:17;;;;;;;23.17;15.63;;;7.70;99.90;;;;;;4955277;28;20221;-71
2023/10/19 14:39:45;;;;;;;22.50;14.43;;;7.70;99.90;;;;;;4955268;28;20240;-71
2023/10/19 14:42:13;;;;;;;20.40;13.70;;;7.80;99.90;;;;;;4955041;28;20280;-71
2023/10/19 14:44:40;;;;;;;20.33;14.27;;;7.80;99.90;;;;;;4955355;28;20205;-71
2023/10/19 14:47:07;;;;;;;22.45;15.55;;;7.70;99.90;;;;;;4955190;28;20228;-69
2023/10/19 14:49:34;;;;;;;24.70;16.83;;;7.80;99.90;;;;;;4955599;28;20216;-70
2023/10/19 14:52:00;;;;;;;26.48;17.15;;;7.80;99.90;;;;;;4955065;28;20260;-69
2023/10/19 14:54:28;;;;;;;25.20;16.60;;;7.80;99.90;;;;;;4954876;28;20244;-69
2023/10/19 14:56:57;;;;;;;28.33;15.70;;;7.80;99.90;;;;;;4955062;28;20212;-69
2023/10/19 14:59:25;;;;;;;21.08;14.32;;;7.80;99.90;;;;;;4954830;28;20217;-70
2023/10/19 15:01:53;;;;;;;26.52;16.55;;;7.70;99.90;;;;;;4954826;28;20291;-69
2023/10/19 15:04:20;;;;;;;25.25;16.75;;;7.70;99.90;;;;;;4954875;28;20224;-69
2023/10/19 15:06:46;;;;;;;22.98;15.65;;;7.70;99.90;;;;;;4955007;28;20863;-70
2023/10/19 15:09:20;;;;;;;18.77;12.77;;;7.70;99.90;;;;;;4957186;28;20218;-70
2023/10/19 15:11:47;;;;;;;18.92;13.20;;;7.70;99.90;;;;;;4957302;28;20240;-71
2023/10/19 15:14:13;;;;;;;21.48;16.60;;;7.70;99.90;;;;;;4957441;28;20327;-71
2023/10/19 15:16:41;;;;;;;23.95;15.25;;;7.70;99.90;;;;;;4955344;28;20296;-71
2023/10/19 15:19:12;;;;;;;21.10;16.25;;;7.70;99.90;;;;;;4955216;28;20217;-71
2023/10/19 15:21:38;;;;;;;22.42;15.50;;;7.70;99.90;;;;;;4946400;28;20229;-71
2023/10/19 15:24:06;;;;;;;24.33;15.70;;;7.70;99.90;;;;;;4946452;28;20211;-70
2023/10/19 15:26:33;;;;;;;30.67;16.85;;;7.70;99.90;;;;;;4950739;28;20210;-71
2023/10/19 15:28:59;;;;;;;22.83;15.02;;;7.70;99.90;;;;;;4943237;29;20212;-71
2023/10/19 15:31:26;;;;;;;24.35;15.40;;;7.70;99.90;;;;;;4945859;29;20229;-71
2023/10/19 15:33:54;;;;;;;23.90;15.45;;;7.70;99.90;;;;;;4946127;28;20220;-72
2023/10/19 15:36:21;;;;;;;25.17;16.63;;;7.70;99.90;;;;;;4943807;28;20215;-71
2023/10/19 15:38:49;;;;;;;21.35;13.20;;;7.70;99.90;;;;;;4943141;29;20547;-71
2023/10/19 15:41:16;;;;;;;16.48;11.82;;;7.70;99.90;;;;;;4944348;29;20229;-71
2023/10/19 15:43:42;;;;;;;25.10;15.25;;;7.70;99.90;;;;;;4946294;28;20217;-71
2023/10/19 15:46:13;;;;;;;26.55;15.93;;;7.70;99.90;;;;;;4944776;28;20213;-71
2023/10/19 15:48:40;;;;;;;26.38;14.45;;;7.70;99.90;;;;;;4947427;29;20213;-71
2023/10/19 15:51:08;;;;;;;20.98;14.68;;;7.70;99.90;;;;;;4945655;28;20233;-70
2023/10/19 15:53:35;;;;;;;24.42;17.48;;;7.70;99.90;;;;;;4946062;28;20213;-71
2023/10/19 15:56:03;;;;;;;17.30;12.02;;;7.70;99.90;;;;;;4945771;28;20236;-71
2023/10/19 15:58:31;;;;;;;18.63;12.73;;;7.70;99.90;;;;;;4942553;29;20214;-71
2023/10/19 16:00:57;;;;;;;29.98;16.42;;;7.70;99.90;;;;;;4942321;29;20248;-71
2023/10/19 16:03:24;;;;;;;22.80;16.25;;;7.70;99.90;;;;;;4945167;29;20673;-71
2023/10/19 16:05:51;;;;;;;22.77;17.13;;;7.70;99.90;;;;;;4945462;28;20209;-71
2023/10/19 16:08:19;;;;;;;25.65;15.80;;;7.70;99.90;;;;;;4945820;28;20235;-71
2023/10/19 16:10:46;;;;;;;18.25;11.82;;;7.70;99.90;;;;;;4947907;28;20329;-71
2023/10/19 16:13:13;;;;;;;22.65;15.93;;;7.70;99.90;;;;;;4943092;29;20210;-71
2023/10/19 16:15:40;;;;;;;20.80;14.52;;;7.70;99.90;;;;;;4971917;23;20228;-73
2023/10/19 16:18:07;;;;;;;21.45;14.20;;;7.70;99.90;;;;;;4961540;28;20220;-73
2023/10/19 16:20:34;;;;;;;27.13;17.67;;;7.60;99.90;;;;;;4964418;28;20315;-73
2023/10/19 16:23:01;;;;;;;25.27;14.02;;;7.60;99.90;;;;;;4957127;28;20225;-73
2023/10/19 16:25:29;;;;;;;21.17;15.73;;;7.60;99.90;;;;;;4960406;28;20229;-72
2023/10/19 16:27:56;;;;;;;22.83;15.13;;;7.60;99.90;;;;;;4960621;28;20213;-72
2023/10/19 16:30:22;;;;;;;27.45;16.52;;;7.60;99.90;;;;;;4963220;28;20531;-71
2023/10/19 16:32:49;;;;;;;22.73;16.08;;;7.60;99.90;;;;;;4964314;28;20231;-72
2023/10/19 16:35:16;;;;;;;26.33;16.73;;;7.60;99.90;;;;;;4962318;28;20236;-72
2023/10/19 16:37:43;;;;;;;34.75;19.65;;;7.60;99.90;;;;;;4961089;28;20330;-72
2023/10/19 16:40:14;;;;;;;25.92;17.90;;;7.60;99.90;;;;;;4961404;28;20708;-72
2023/10/19 16:42:42;;;;;;;29.48;19.13;;;7.60;99.90;;;;;;4959364;28;20620;-72
2023/10/19 16:45:10;;;;;;;27.67;18.50;;;7.60;99.90;;;;;;4960217;28;20257;-72